Randall Island, California
Current Conditions -  °F | °C
As of 3:53 PM on Sunday 25 Jan 2015 (Local Time) from KSAC Reporting Station
Clear Clear  
Wind Chill: 58°   Ceiling: Unl
Heat Index: 58°   Visibility: 9mi
Dew Point: 45°   Wind: 0mph
Humidity: 62%   Direction: NA
Pressure: 30.04"   Gusts: NA
Location:  38.3168°N, 121.532°W
Report Text: KSAC 252353Z 00000KT 9SM CLR 14/07 A3004 RMK AO2 SLP172 T01440072 10150 20072 56024
Loading
Personal Weather Stations






























Interactive Weather Map New forecast layout! Learn more

10-Day Weather Forecast

Advertisements
Track Severe Weather on mobile